Time;durP1;ratioP1;P1;durP2;ratioP2;P2;SDS_P1;SDS_P2;PMS_P1;PMS_P2;Temp;Humidity;BMP_temperature;BMP_pressure;BME280_temperature;BME280_humidity;BME280_pressure;Samples;Min_cycle;Max_cycle;Signal;HPM_P1;HPM_P2
2021/12/01 00:00:06;;;;;;;1.43;1.43;;;;;;;2.81;100.00;97316.69;5018264;28;20211;-76
2021/12/01 00:02:34;;;;;;;2.30;2.20;;;;;;;2.88;100.00;97321.28;5008924;28;20200;-76
2021/12/01 00:05:03;;;;;;;1.57;1.47;;;;;;;2.79;100.00;97314.19;5033117;28;20235;-75
2021/12/01 00:07:35;;;;;;;2.37;2.17;;;;;;;2.78;100.00;97304.69;5024783;28;20212;-77
2021/12/01 00:10:05;;;;;;;1.83;1.73;;;;;;;2.79;100.00;97314.19;5021369;28;20208;-75
2021/12/01 00:12:33;;;;;;;2.40;2.20;;;;;;;2.73;100.00;97312.97;4998640;28;20212;-77
2021/12/01 00:15:01;;;;;;;1.47;1.47;;;;;;;2.75;100.00;97304.97;5013260;28;20679;-75
2021/12/01 00:17:29;;;;;;;1.40;1.40;;;;;;;2.84;100.00;97298.97;5023516;28;20227;-76
2021/12/01 00:19:59;;;;;;;1.80;1.70;;;;;;;2.73;100.00;97293.81;5017840;28;20587;-75
2021/12/01 00:22:27;;;;;;;1.70;1.70;;;;;;;2.73;100.00;97299.03;5027599;28;20204;-77
2021/12/01 00:24:56;;;;;;;1.57;1.47;;;;;;;2.75;100.00;97291.88;5035204;28;20218;-76
2021/12/01 00:27:25;;;;;;;1.00;1.00;;;;;;;2.71;100.00;97296.56;5001835;28;20831;-76
2021/12/01 00:29:53;;;;;;;1.30;1.30;;;;;;;2.65;100.00;97291.03;5013132;28;20212;-77
2021/12/01 00:32:21;;;;;;;1.20;1.20;;;;;;;2.64;100.00;97298.03;5020186;28;20203;-76
2021/12/01 00:34:50;;;;;;;1.20;1.20;;;;;;;2.63;100.00;97298.97;5017887;28;20235;-75
2021/12/01 00:37:18;;;;;;;1.47;1.47;;;;;;;2.60;100.00;97288.78;5028458;28;20443;-77
2021/12/01 00:39:46;;;;;;;1.30;1.30;;;;;;;2.62;100.00;97292.09;5022708;28;20208;-77
2021/12/01 00:42:14;;;;;;;1.30;1.30;;;;;;;2.62;100.00;97286.88;5021247;28;20296;-76
2021/12/01 00:44:47;;;;;;;1.23;1.23;;;;;;;2.54;100.00;97289.31;5007378;28;20260;-77
2021/12/01 00:47:15;;;;;;;1.17;1.17;;;;;;;2.56;100.00;97276.94;5002436;28;20230;-76
2021/12/01 00:49:43;;;;;;;1.63;1.40;;;;;;;2.49;100.00;97279.25;5022430;28;20269;-74
2021/12/01 00:52:11;;;;;;;1.20;1.20;;;;;;;2.48;100.00;97274.16;5018753;28;20874;-75
2021/12/01 00:54:39;;;;;;;1.27;1.27;;;;;;;2.45;100.00;97278.69;5034983;28;20211;-77
2021/12/01 00:57:07;;;;;;;1.30;1.30;;;;;;;2.40;100.00;97272.16;5023754;28;20231;-75
2021/12/01 00:59:36;;;;;;;1.13;1.13;;;;;;;2.37;100.00;97270.66;5005125;28;20215;-76
2021/12/01 01:02:06;;;;;;;1.20;1.20;;;;;;;2.39;100.00;97268.75;5031012;28;20565;-74
2021/12/01 01:04:34;;;;;;;1.20;1.20;;;;;;;2.33;100.00;97266.66;5022859;28;20200;-77
2021/12/01 01:07:02;;;;;;;1.00;1.00;;;;;;;2.34;100.00;97270.09;5023274;28;20234;-75
2021/12/01 01:09:32;;;;;;;2.40;1.20;;;;;;;2.34;100.00;97267.47;5016419;28;20214;-77
2021/12/01 01:17:37;;;;;;;1.00;1.00;;;;;;;2.35;100.00;97266.50;5006341;28;20222;-75
2021/12/01 01:20:07;;;;;;;0.90;0.90;;;;;;;2.37;100.00;97261.97;5025772;28;20207;-78
2021/12/01 01:22:35;;;;;;;1.20;1.20;;;;;;;2.28;100.00;97267.03;5025241;28;20428;-75
2021/12/01 01:25:04;;;;;;;1.00;1.00;;;;;;;2.28;100.00;97258.38;5042423;28;20203;-76
2021/12/01 01:27:32;;;;;;;1.30;1.30;;;;;;;2.26;100.00;97258.50;5035887;28;20607;-76
2021/12/01 01:30:00;;;;;;;1.20;1.20;;;;;;;2.25;100.00;97256.84;5010229;28;22203;-77
2021/12/01 01:32:29;;;;;;;1.43;1.23;;;;;;;2.26;100.00;97255.03;5023704;28;20671;-76
2021/12/01 01:34:57;;;;;;;1.00;1.00;;;;;;;2.33;100.00;97247.50;5024121;28;23014;-78
2021/12/01 01:37:26;;;;;;;1.00;1.00;;;;;;;2.36;100.00;97247.25;5028421;28;20227;-76
2021/12/01 01:39:54;;;;;;;1.23;1.23;;;;;;;2.32;100.00;97238.84;5027926;28;20224;-77
2021/12/01 01:42:22;;;;;;;1.03;1.03;;;;;;;2.32;100.00;97238.84;5041092;28;20210;-77
2021/12/01 01:44:50;;;;;;;1.20;1.20;;;;;;;2.27;100.00;97239.22;4994699;28;22472;-78
2021/12/01 01:47:18;;;;;;;1.30;1.30;;;;;;;2.33;100.00;97244.91;5034799;28;20310;-75
2021/12/01 01:49:52;;;;;;;1.40;1.40;;;;;;;2.30;100.00;97241.59;5024631;28;20876;-76
2021/12/01 01:52:20;;;;;;;1.30;1.30;;;;;;;2.30;100.00;97241.59;5012263;28;20222;-77
2021/12/01 01:54:48;;;;;;;1.40;1.40;;;;;;;2.32;100.00;97236.22;5032372;28;20199;-75
2021/12/01 01:57:16;;;;;;;1.60;1.60;;;;;;;2.37;100.00;97230.59;5021083;28;20231;-76
2021/12/01 01:59:44;;;;;;;1.60;1.50;;;;;;;2.37;100.00;97227.97;5035599;28;20215;-77
2021/12/01 02:02:12;;;;;;;1.30;1.30;;;;;;;2.43;100.00;97235.28;4998570;28;20619;-76
2021/12/01 02:04:41;;;;;;;2.50;2.20;;;;;;;2.44;100.00;97223.88;5034304;28;20215;-75
2021/12/01 02:07:10;;;;;;;1.80;1.70;;;;;;;2.43;100.00;97230.91;5026192;28;20639;-77
2021/12/01 02:09:38;;;;;;;2.03;1.93;;;;;;;2.45;100.00;97215.91;5021437;28;20211;-75
2021/12/01 02:12:07;;;;;;;1.90;1.90;;;;;;;2.45;100.00;97208.06;5034861;28;20203;-77
2021/12/01 02:14:35;;;;;;;2.10;2.00;;;;;;;2.51;100.00;97211.09;5018918;28;20227;-75
2021/12/01 02:17:03;;;;;;;1.93;1.83;;;;;;;2.53;100.00;97209.19;5009165;28;20228;-75
2021/12/01 02:19:31;;;;;;;1.67;1.67;;;;;;;2.48;100.00;97199.13;5026308;28;20277;-75
2021/12/01 02:22:02;;;;;;;1.87;1.77;;;;;;;2.51;100.00;97195.41;5018613;28;20217;-76
2021/12/01 02:24:30;;;;;;;2.30;2.20;;;;;;;2.54;100.00;97197.75;5024859;28;20292;-76
2021/12/01 02:26:58;;;;;;;2.00;1.90;;;;;;;2.54;100.00;97198.59;5029349;28;20210;-77
2021/12/01 02:29:28;;;;;;;1.90;1.90;;;;;;;2.54;100.00;97182.91;5040074;28;20941;-75
2021/12/01 02:31:56;;;;;;;2.20;2.10;;;;;;;2.57;100.00;97182.63;5009940;28;20223;-77
2021/12/01 02:34:25;;;;;;;1.90;1.90;;;;;;;2.60;100.00;97181.53;5034384;28;20214;-77
2021/12/01 02:36:55;;;;;;;2.00;1.90;;;;;;;2.62;100.00;97182.22;5028876;28;20227;-77
2021/12/01 02:39:24;;;;;;;2.30;2.20;;;;;;;2.63;100.00;97183.06;5027348;28;20845;-76
2021/12/01 02:41:54;;;;;;;2.10;2.00;;;;;;;2.65;100.00;97178.53;5040842;28;20207;-77
2021/12/01 02:44:23;;;;;;;2.33;2.00;;;;;;;2.60;100.00;97177.13;5023735;28;20188;-75
2021/12/01 02:46:51;;;;;;;2.33;2.23;;;;;;;2.65;100.00;97181.13;5015518;28;20238;-77
2021/12/01 02:49:20;;;;;;;1.77;1.77;;;;;;;2.68;100.00;97173.03;5020616;28;20704;-75
2021/12/01 02:51:49;;;;;;;3.13;2.20;;;;;;;2.62;100.00;97165.72;5037538;28;20243;-77
2021/12/01 02:54:18;;;;;;;1.93;1.83;;;;;;;2.60;100.00;97153.59;5013890;28;20211;-75
2021/12/01 02:56:50;;;;;;;1.93;1.83;;;;;;;2.68;100.00;97147.69;5039573;28;20230;-76
2021/12/01 02:59:18;;;;;;;2.30;2.20;;;;;;;2.59;100.00;97153.72;5035599;28;20200;-75
2021/12/01 03:01:46;;;;;;;2.10;2.00;;;;;;;2.62;100.00;97157.88;5000533;28;20239;-77
2021/12/01 03:04:15;;;;;;;2.20;2.00;;;;;;;2.56;100.00;97154.84;5035922;28;20493;-75
2021/12/01 03:06:45;;;;;;;2.03;1.93;;;;;;;2.62;100.00;97150.03;5025080;28;20682;-74
2021/12/01 03:09:14;;;;;;;1.80;1.80;;;;;;;2.63;100.00;97139.41;5016821;28;20211;-75
2021/12/01 03:11:42;;;;;;;2.20;2.10;;;;;;;2.60;100.00;97137.06;5038319;28;20309;-77
2021/12/01 03:14:14;;;;;;;2.23;2.13;;;;;;;2.52;100.00;97132.53;5023668;28;20218;-74
2021/12/01 03:16:43;;;;;;;2.23;2.13;;;;;;;2.64;100.00;97135.81;5040215;28;20810;-74
2021/12/01 03:19:11;;;;;;;1.83;1.83;;;;;;;2.69;100.00;97131.03;4996387;28;20208;-75
2021/12/01 03:21:39;;;;;;;1.67;1.67;;;;;;;2.65;100.00;97127.03;5039589;28;20195;-77
2021/12/01 03:24:09;;;;;;;2.37;2.27;;;;;;;2.66;100.00;97130.47;5021023;28;20207;-75
2021/12/01 03:26:38;;;;;;;2.13;2.03;;;;;;;2.64;100.00;97121.94;5018996;28;20200;-77
2021/12/01 03:29:07;;;;;;;1.83;1.83;;;;;;;2.79;100.00;97122.38;5038510;28;20231;-75
2021/12/01 03:31:37;;;;;;;1.77;1.77;;;;;;;2.74;100.00;97112.28;5027250;28;20231;-77
2021/12/01 03:34:05;;;;;;;1.87;1.80;;;;;;;2.77;100.00;97112.03;5003474;28;20211;-75
2021/12/01 03:36:34;;;;;;;1.67;1.67;;;;;;;2.74;100.00;97112.28;5020502;28;20227;-76
2021/12/01 03:39:02;;;;;;;2.27;2.17;;;;;;;2.85;100.00;97101.72;5029508;28;20722;-73
2021/12/01 03:41:30;;;;;;;1.60;1.60;;;;;;;3.00;100.00;97103.91;5017457;28;20216;-75
2021/12/01 03:43:58;;;;;;;1.47;1.37;;;;;;;3.04;100.00;97102.69;5020659;28;20686;-73
2021/12/01 03:46:26;;;;;;;1.50;1.50;;;;;;;3.03;100.00;97091.41;5035431;28;20195;-74
2021/12/01 03:48:56;;;;;;;1.40;1.30;;;;;;;3.04;100.00;97095.66;4996957;28;20234;-72
2021/12/01 03:51:24;;;;;;;1.40;1.40;;;;;;;3.01;100.00;97090.69;5024697;28;20587;-74
2021/12/01 03:53:53;;;;;;;1.57;1.57;;;;;;;3.02;100.00;97081.84;5021494;28;20841;-72
2021/12/01 03:56:21;;;;;;;1.37;1.37;;;;;;;2.97;100.00;97070.97;5020045;28;20216;-77
2021/12/01 03:58:49;;;;;;;1.30;1.30;;;;;;;2.94;100.00;97073.06;5018120;28;20734;-74
2021/12/01 04:01:17;;;;;;;2.07;1.97;;;;;;;2.91;100.00;97078.59;5033003;28;20199;-77
2021/12/01 04:03:45;;;;;;;1.27;1.27;;;;;;;2.86;100.00;97071.97;5019866;28;20215;-75
2021/12/01 04:06:15;;;;;;;1.87;1.80;;;;;;;2.91;100.00;97068.09;5011495;28;20237;-75
2021/12/01 04:08:43;;;;;;;1.67;1.60;;;;;;;2.86;100.00;97058.88;5032686;28;20227;-73
2021/12/01 04:11:11;;;;;;;1.23;1.23;;;;;;;2.87;100.00;97046.63;5020819;28;20424;-75
2021/12/01 04:13:39;;;;;;;1.50;1.40;;;;;;;2.92;100.00;97051.44;5022515;28;20208;-76
2021/12/01 04:16:07;;;;;;;1.63;1.60;;;;;;;2.84;100.00;97039.03;5029338;28;20869;-74
2021/12/01 04:18:36;;;;;;;1.17;1.17;;;;;;;2.84;100.00;97042.50;5035033;28;20326;-74
2021/12/01 04:21:05;;;;;;;1.27;1.27;;;;;;;2.84;100.00;97021.56;5001409;28;20381;-76
2021/12/01 04:23:36;;;;;;;1.50;1.50;;;;;;;2.80;100.00;97030.63;5031609;28;20649;-75
2021/12/01 04:26:04;;;;;;;1.23;1.23;;;;;;;2.81;100.00;97034.09;5017004;28;20219;-75
2021/12/01 04:28:32;;;;;;;1.10;1.10;;;;;;;2.79;100.00;97028.97;5034459;28;20222;-76
2021/12/01 04:31:00;;;;;;;1.40;1.40;;;;;;;2.89;100.00;97029.81;5018864;28;20605;-76
2021/12/01 04:33:28;;;;;;;1.40;1.40;;;;;;;2.85;100.00;97040.69;5033820;28;20350;-78
2021/12/01 04:35:56;;;;;;;1.27;1.27;;;;;;;2.79;100.00;97036.81;5002082;28;20311;-76
2021/12/01 04:38:24;;;;;;;1.40;1.40;;;;;;;2.83;100.00;97021.69;5036844;28;20254;-78
2021/12/01 04:40:54;;;;;;;1.30;1.30;;;;;;;2.78;100.00;97026.50;5026166;28;20330;-76
2021/12/01 04:43:22;;;;;;;1.30;1.30;;;;;;;2.80;100.00;97019.34;5031610;28;20209;-77
2021/12/01 04:45:58;;;;;;;1.37;1.37;;;;;;;2.85;100.00;97012.75;5022134;28;20215;-76
2021/12/01 04:48:26;;;;;;;1.40;1.37;;;;;;;2.89;100.00;97011.50;5023053;28;20237;-77
2021/12/01 04:50:54;;;;;;;1.43;1.43;;;;;;;2.85;100.00;97007.50;5001398;28;20228;-75
2021/12/01 04:53:23;;;;;;;1.50;1.50;;;;;;;2.91;100.00;97006.09;5022066;28;20569;-77
2021/12/01 04:55:52;;;;;;;1.10;1.10;;;;;;;2.93;100.00;97013.84;5034811;28;20413;-76
2021/12/01 04:58:21;;;;;;;1.27;1.27;;;;;;;2.91;100.00;97005.31;5035304;28;20817;-78
2021/12/01 05:00:49;;;;;;;1.10;1.10;;;;;;;3.01;100.00;96999.06;5022665;28;20219;-76
2021/12/01 05:03:18;;;;;;;1.53;1.50;;;;;;;3.02;100.00;96995.47;5028619;28;20432;-77
2021/12/01 05:05:51;;;;;;;1.33;1.23;;;;;;;2.95;100.00;96976.06;4999626;28;20306;-75
2021/12/01 05:08:20;;;;;;;1.23;1.23;;;;;;;3.02;100.00;96978.97;5018629;28;20285;-78
2021/12/01 05:10:48;;;;;;;1.40;1.40;;;;;;;2.95;100.00;96970.84;5022864;28;20209;-75
2021/12/01 05:13:16;;;;;;;1.50;1.27;;;;;;;3.02;100.00;96971.91;5020481;28;20311;-78
2021/12/01 05:15:47;;;;;;;1.60;1.50;;;;;;;3.03;100.00;96965.75;5022174;28;20610;-76
2021/12/01 05:18:15;;;;;;;1.63;1.60;;;;;;;3.02;100.00;96971.09;5018711;28;20697;-77
2021/12/01 05:20:43;;;;;;;1.57;1.47;;;;;;;3.04;100.00;96977.03;5031972;28;20200;-75
2021/12/01 05:23:15;;;;;;;1.70;1.70;;;;;;;3.16;100.00;96973.25;4985059;28;20214;-77
2021/12/01 05:25:45;;;;;;;2.27;1.90;;;;;;;3.07;100.00;96974.13;5033199;28;21056;-76
2021/12/01 05:28:13;;;;;;;1.43;1.43;;;;;;;3.12;100.00;96968.47;5032633;28;20258;-74
2021/12/01 05:30:41;;;;;;;2.40;1.97;;;;;;;3.16;100.00;96967.22;5020447;28;20615;-74
2021/12/01 05:33:11;;;;;;;1.50;1.50;;;;;;;3.17;100.00;96953.97;5017212;28;20208;-73
2021/12/01 05:35:43;;;;;;;1.57;1.47;;;;;;;3.24;100.00;96962.09;5018561;28;20204;-73
2021/12/01 05:38:11;;;;;;;3.60;2.30;;;;;;;3.28;100.00;96954.78;4997065;28;20236;-73
2021/12/01 05:40:40;;;;;;;2.83;2.63;;;;;;;3.23;100.00;96951.78;5026807;28;20421;-74
2021/12/01 05:43:08;;;;;;;2.20;1.73;;;;;;;3.34;100.00;96951.59;5013126;28;20513;-73
2021/12/01 05:45:38;;;;;;;1.50;1.50;;;;;;;3.32;100.00;96951.72;5031129;28;20691;-74
2021/12/01 05:48:06;;;;;;;1.57;1.47;;;;;;;3.25;100.00;96945.41;5006873;28;20492;-73
2021/12/01 05:50:36;;;;;;;1.93;1.83;;;;;;;3.29;100.00;96941.53;5026531;28;20387;-78
2021/12/01 05:53:04;;;;;;;1.97;1.83;;;;;;;3.32;100.00;96940.44;5014373;28;20203;-78
2021/12/01 05:55:33;;;;;;;1.50;1.40;;;;;;;3.37;100.00;96927.72;5024493;28;20310;-79
2021/12/01 05:58:01;;;;;;;2.13;2.03;;;;;;;3.42;100.00;96922.88;5026175;28;20297;-78
2021/12/01 06:00:29;;;;;;;1.50;1.50;;;;;;;3.32;100.00;96911.63;5039281;28;20855;-79
2021/12/01 06:02:57;;;;;;;1.80;1.70;;;;;;;3.36;100.00;96905.13;5022859;28;20644;-78
2021/12/01 06:05:25;;;;;;;1.67;1.60;;;;;;;3.35;100.00;96898.22;5032274;28;20381;-77
2021/12/01 06:07:55;;;;;;;1.53;1.43;;;;;;;3.36;100.00;96891.19;5033995;28;20231;-78
2021/12/01 06:10:23;;;;;;;1.50;1.50;;;;;;;3.35;100.00;96879.91;4990512;28;20227;-79
2021/12/01 06:12:52;;;;;;;1.97;1.87;;;;;;;3.35;100.00;96872.03;5025545;28;20214;-77
2021/12/01 06:15:20;;;;;;;1.60;1.50;;;;;;;3.42;100.00;96859.19;5024921;28;20208;-79
2021/12/01 06:17:48;;;;;;;1.60;1.40;;;;;;;3.52;100.00;96861.75;5022944;28;20219;-78
2021/12/01 06:20:16;;;;;;;1.70;1.70;;;;;;;3.56;100.00;96860.47;5041519;28;20218;-79
2021/12/01 06:22:45;;;;;;;2.10;1.20;;;;;;;3.58;100.00;96856.75;5038524;28;20204;-78
2021/12/01 06:25:15;;;;;;;1.87;1.77;;;;;;;3.65;100.00;96856.16;5009917;28;20680;-79
2021/12/01 06:27:43;;;;;;;1.67;1.37;;;;;;;3.76;100.00;96853.31;5028380;28;20227;-78
2021/12/01 06:30:12;;;;;;;1.57;1.47;;;;;;;3.73;100.00;96850.97;5037027;28;20204;-79
2021/12/01 06:32:40;;;;;;;1.37;1.37;;;;;;;3.63;100.00;96843.22;5018492;28;20223;-78
2021/12/01 06:35:08;;;;;;;1.40;1.40;;;;;;;3.74;100.00;96858.72;5030600;28;20207;-77
2021/12/01 06:37:37;;;;;;;1.23;1.23;;;;;;;3.72;100.00;96852.78;5025272;28;20250;-77
2021/12/01 06:40:06;;;;;;;3.23;1.53;;;;;;;3.73;100.00;96856.22;5026510;28;20307;-78
2021/12/01 06:42:36;;;;;;;1.30;1.30;;;;;;;3.69;100.00;96853.09;5004465;28;20220;-77
2021/12/01 06:45:05;;;;;;;1.00;1.00;;;;;;;3.76;100.00;96862.00;5018922;28;20257;-77
2021/12/01 06:47:33;;;;;;;1.60;1.50;;;;;;;3.71;100.00;96860.78;5032237;28;20576;-77
2021/12/01 06:50:03;;;;;;;1.80;1.70;;;;;;;3.70;100.00;96864.38;5020243;28;20211;-78
2021/12/01 06:52:31;;;;;;;1.20;1.20;;;;;;;3.60;100.00;96848.75;5037410;28;20215;-79
2021/12/01 06:55:00;;;;;;;1.60;1.60;;;;;;;3.69;100.00;96855.72;5018658;28;20742;-79
2021/12/01 06:57:29;;;;;;;1.93;1.83;;;;;;;3.72;100.00;96857.19;5005225;28;20236;-78
2021/12/01 06:59:59;;;;;;;2.70;2.60;;;;;;;3.72;100.00;96860.66;5008272;28;20228;-78
2021/12/01 07:02:27;;;;;;;1.20;1.20;;;;;;;3.73;100.00;96853.59;5021871;28;20220;-78
2021/12/01 07:04:55;;;;;;;5.67;5.17;;;;;;;3.72;100.00;96851.94;5024365;28;20439;-78
2021/12/01 07:07:23;;;;;;;1.70;1.60;;;;;;;3.71;100.00;96851.16;5025423;28;20232;-78
2021/12/01 07:09:51;;;;;;;1.17;1.17;;;;;;;3.72;100.00;96838.84;5030723;28;20523;-78
2021/12/01 07:12:19;;;;;;;2.33;2.13;;;;;;;3.79;100.00;96833.84;5011110;28;20259;-75
2021/12/01 07:14:47;;;;;;;2.70;2.50;;;;;;;3.78;100.00;96827.78;5010007;28;20513;-75
2021/12/01 07:17:17;;;;;;;1.87;1.60;;;;;;;3.76;100.00;96827.09;5036061;28;20231;-77
2021/12/01 07:19:45;;;;;;;2.30;2.20;;;;;;;3.83;100.00;96816.84;5012785;28;20231;-77
2021/12/01 07:22:13;;;;;;;1.20;1.20;;;;;;;3.84;100.00;96813.25;5034344;28;20215;-78
2021/12/01 07:24:41;;;;;;;1.27;1.27;;;;;;;3.82;100.00;96826.53;5027478;28;20660;-77
2021/12/01 07:27:13;;;;;;;1.07;1.07;;;;;;;3.90;100.00;96810.03;5037065;28;20220;-77
2021/12/01 07:29:42;;;;;;;1.47;1.37;;;;;;;3.86;100.00;96809.53;4992027;28;20216;-76
2021/12/01 07:32:11;;;;;;;1.57;1.47;;;;;;;3.89;100.00;96806.59;5021108;28;20337;-77
2021/12/01 07:34:43;;;;;;;1.17;1.17;;;;;;;3.90;100.00;96804.78;5029822;28;20896;-77
2021/12/01 07:37:13;;;;;;;1.07;1.03;;;;;;;3.90;100.00;96795.13;5016629;28;20737;-76
2021/12/01 07:39:41;;;;;;;1.37;1.33;;;;;;;3.88;100.00;96796.25;5032898;28;20227;-76
2021/12/01 07:42:10;;;;;;;4.93;4.43;;;;;;;3.88;100.00;96783.13;5035324;28;20200;-76
2021/12/01 07:44:38;;;;;;;1.73;1.63;;;;;;;3.96;100.00;96770.09;4991491;28;20467;-75
2021/12/01 07:47:07;;;;;;;1.00;1.00;;;;;;;4.01;100.00;96770.47;5021304;28;20767;-76
2021/12/01 07:49:35;;;;;;;1.07;1.07;;;;;;;4.01;100.00;96761.78;5020486;28;20208;-76
2021/12/01 07:52:08;;;;;;;1.47;1.20;;;;;;;4.02;100.00;96758.19;5016866;28;20415;-75
2021/12/01 07:54:39;;;;;;;0.87;0.87;;;;;;;4.12;100.00;96755.47;5028760;28;20215;-73
2021/12/01 07:57:07;;;;;;;1.60;1.50;;;;;;;4.11;100.00;96762.50;5026205;28;20781;-78
2021/12/01 07:59:36;;;;;;;1.33;1.20;;;;;;;4.17;100.00;96751.44;5000650;28;20235;-75
2021/12/01 08:02:04;;;;;;;1.00;1.00;;;;;;;4.17;100.00;96751.44;4997546;28;20216;-76
2021/12/01 08:04:33;;;;;;;1.00;1.00;;;;;;;4.29;100.00;96749.34;5035306;28;20318;-76
2021/12/01 08:07:02;;;;;;;1.00;1.00;;;;;;;4.22;100.00;96731.78;5004170;28;20574;-77
2021/12/01 08:09:31;;;;;;;1.10;1.10;;;;;;;4.20;100.00;96727.50;5035143;28;20231;-77
2021/12/01 08:11:59;;;;;;;0.77;0.77;;;;;;;4.39;100.00;96727.44;5032586;28;20548;-75
2021/12/01 08:14:27;;;;;;;0.90;0.90;;;;;;;4.33;100.00;96726.25;5022343;28;20223;-77
2021/12/01 08:16:55;;;;;;;1.50;1.50;;;;;;;4.36;100.00;96728.56;4990089;28;20447;-77
2021/12/01 08:19:23;;;;;;;0.93;0.93;;;;;;;4.43;100.00;96713.03;5020175;28;20220;-77
2021/12/01 08:21:51;;;;;;;1.27;1.17;;;;;;;4.36;100.00;96710.22;5016839;28;20336;-78
2021/12/01 08:24:20;;;;;;;1.57;1.10;;;;;;;4.44;100.00;96710.25;5037475;28;20208;-78
2021/12/01 08:26:50;;;;;;;1.00;1.00;;;;;;;4.51;100.00;96706.97;5016643;28;20243;-76
2021/12/01 08:29:18;;;;;;;0.73;0.73;;;;;;;4.65;100.00;96703.78;5039602;28;20207;-78
2021/12/01 08:31:46;;;;;;;0.70;0.63;;;;;;;4.55;100.00;96700.47;4994680;28;20211;-77
2021/12/01 08:34:14;;;;;;;0.93;0.93;;;;;;;4.58;100.00;96700.97;5016901;28;20571;-77
2021/12/01 08:36:43;;;;;;;0.73;0.60;;;;;;;4.62;100.00;96683.91;5020885;28;20680;-75
2021/12/01 08:39:11;;;;;;;0.77;0.77;;;;;;;4.68;100.00;96681.63;5023263;28;20773;-76
2021/12/01 08:41:39;;;;;;;0.70;0.70;;;;;;;4.76;100.00;96671.19;5022555;28;20204;-75
2021/12/01 08:44:10;;;;;;;0.80;0.80;;;;;;;4.93;100.00;96672.06;5021747;28;20207;-77
2021/12/01 08:46:38;;;;;;;0.80;0.80;;;;;;;5.03;100.00;96651.72;5012091;28;20200;-75
2021/12/01 08:49:07;;;;;;;1.00;0.97;;;;;;;5.06;100.00;96647.91;5001698;28;20231;-76
2021/12/01 08:51:35;;;;;;;0.77;0.77;;;;;;;5.20;100.00;96647.31;5033675;28;20215;-74
2021/12/01 08:54:04;;;;;;;0.90;0.90;;;;;;;5.12;100.00;96646.47;5020369;28;20421;-78
2021/12/01 08:56:32;;;;;;;0.90;0.90;;;;;;;5.32;100.00;96631.19;5008558;28;20215;-75
2021/12/01 08:59:00;;;;;;;1.20;1.00;;;;;;;5.35;100.00;96630.88;5032471;28;20365;-76
2021/12/01 09:01:30;;;;;;;1.00;1.00;;;;;;;5.39;100.00;96621.69;5019888;28;20208;-74
2021/12/01 09:04:00;;;;;;;0.70;0.70;;;;;;;5.50;100.00;96617.91;4986052;28;20243;-75
2021/12/01 09:06:28;;;;;;;0.80;0.80;;;;;;;5.58;100.00;96599.47;5028284;28;20204;-75
2021/12/01 09:08:56;;;;;;;0.90;0.90;;;;;;;5.74;100.00;96603.09;5007639;28;20520;-79
2021/12/01 09:11:24;;;;;;;0.80;0.80;;;;;;;5.83;100.00;96601.25;5023306;28;20699;-75
2021/12/01 09:13:52;;;;;;;0.80;0.80;;;;;;;5.84;100.00;96595.81;5015282;28;20805;-76
2021/12/01 09:16:22;;;;;;;0.70;0.70;;;;;;;5.83;100.00;96590.72;5031397;28;20426;-77
2021/12/01 09:18:52;;;;;;;0.80;0.80;;;;;;;6.02;100.00;96582.50;4997649;28;20263;-77
2021/12/01 09:21:21;;;;;;;0.80;0.80;;;;;;;6.15;100.00;96581.13;5022591;28;20734;-76
2021/12/01 09:23:49;;;;;;;1.00;0.83;;;;;;;6.17;100.00;96579.13;5011126;28;20742;-74
2021/12/01 09:26:17;;;;;;;1.47;1.07;;;;;;;6.25;100.00;96584.38;5007144;28;20711;-75
2021/12/01 09:28:45;;;;;;;0.70;0.70;;;;;;;6.35;100.00;96573.63;5033637;28;20230;-76
2021/12/01 09:31:13;;;;;;;0.90;0.90;;;;;;;6.38;100.00;96565.38;5021501;28;20230;-77
2021/12/01 09:33:42;;;;;;;0.83;0.83;;;;;;;6.43;100.00;96565.69;5033174;28;20208;-75
2021/12/01 09:36:12;;;;;;;1.07;1.07;;;;;;;6.28;100.00;96549.84;4993771;28;20215;-75
2021/12/01 09:38:40;;;;;;;0.97;0.97;;;;;;;6.22;100.00;96546.06;5020160;28;20227;-75
2021/12/01 09:41:09;;;;;;;0.60;0.60;;;;;;;6.29;100.00;96540.97;5024206;28;20324;-76
2021/12/01 09:43:38;;;;;;;0.70;0.70;;;;;;;6.25;100.00;96544.09;5021568;28;20508;-75
2021/12/01 09:46:09;;;;;;;0.87;0.87;;;;;;;6.32;100.00;96530.09;5034942;28;20414;-78
2021/12/01 09:48:38;;;;;;;0.80;0.80;;;;;;;6.30;100.00;96518.91;5032299;28;20216;-76
2021/12/01 09:51:16;;;;;;;0.77;0.77;;;;;;;6.26;100.00;96514.16;5003191;28;20219;-78
2021/12/01 09:53:45;;;;;;;0.80;0.80;;;;;;;6.33;100.00;96504.56;5004659;28;20207;-77
2021/12/01 09:56:13;;;;;;;0.67;0.67;;;;;;;6.29;100.00;96498.03;5021867;28;20207;-76
2021/12/01 09:58:42;;;;;;;0.80;0.80;;;;;;;6.32;100.00;96503.78;5032618;28;20787;-76
2021/12/01 10:01:13;;;;;;;0.90;0.90;;;;;;;6.12;100.00;96498.13;5020334;28;20252;-78
2021/12/01 10:03:42;;;;;;;0.93;0.80;;;;;;;6.29;100.00;96488.34;5030837;28;20621;-75
2021/12/01 10:06:11;;;;;;;0.50;0.50;;;;;;;6.15;100.00;96489.06;4988209;28;21143;-76
2021/12/01 10:08:42;;;;;;;0.80;0.73;;;;;;;6.13;100.00;96485.78;5019791;28;20614;-76
2021/12/01 10:11:13;;;;;;;2.70;0.77;;;;;;;6.12;100.00;96489.41;5019222;28;20224;-75
2021/12/01 10:13:43;;;;;;;0.80;0.80;;;;;;;6.05;100.00;96474.31;5014037;28;20210;-76
2021/12/01 10:16:14;;;;;;;0.80;0.63;;;;;;;6.22;100.00;96484.75;5034510;28;20208;-77
2021/12/01 10:18:43;;;;;;;0.60;0.60;;;;;;;6.16;100.00;96474.91;5018200;28;20230;-75
2021/12/01 10:21:14;;;;;;;0.73;0.73;;;;;;;6.30;100.00;96473.34;5002461;28;20235;-77
2021/12/01 10:23:47;;;;;;;0.80;0.80;;;;;;;6.29;100.00;96450.66;5008641;28;20688;-76
2021/12/01 10:26:21;;;;;;;1.23;1.00;;;;;;;6.37;100.00;96448.81;5034376;28;20204;-78
2021/12/01 10:28:51;;;;;;;0.60;0.60;;;;;;;6.30;100.00;96436.53;5021519;28;20237;-78
2021/12/01 10:31:41;;;;;;;0.77;0.77;;;;;;;6.19;100.00;96443.00;5021997;28;20947;-78
2021/12/01 10:34:27;;;;;;;0.97;0.80;;;;;;;6.20;100.00;96434.94;5031403;28;20202;-77
2021/12/01 10:37:18;;;;;;;0.80;0.80;;;;;;;6.23;100.00;96431.97;4987635;28;20627;-78
2021/12/01 10:40:04;;;;;;;0.77;0.77;;;;;;;6.31;100.00;96422.38;5012868;28;20211;-76
2021/12/01 10:42:33;;;;;;;0.90;0.90;;;;;;;6.30;100.00;96420.72;5016582;28;20211;-77
2021/12/01 10:45:03;;;;;;;1.00;1.00;;;;;;;6.41;100.00;96412.41;5029656;28;20683;-77
2021/12/01 10:47:40;;;;;;;0.80;0.80;;;;;;;6.31;100.00;96409.22;5036599;28;20337;-78
2021/12/01 10:50:09;;;;;;;0.90;0.90;;;;;;;6.45;100.00;96405.00;5034806;28;20851;-76
2021/12/01 10:52:39;;;;;;;0.90;0.90;;;;;;;6.47;100.00;96389.84;5007331;28;20223;-76
2021/12/01 10:55:12;;;;;;;0.80;0.80;;;;;;;6.34;100.00;96388.66;5023686;28;20208;-75
2021/12/01 10:57:42;;;;;;;1.10;1.10;;;;;;;6.40;100.00;96384.47;5012471;28;20611;-77
2021/12/01 11:00:22;;;;;;;0.77;0.77;;;;;;;6.37;100.00;96374.31;5022132;28;20257;-75
2021/12/01 11:02:51;;;;;;;1.10;1.10;;;;;;;6.37;100.00;96374.31;5035881;28;20203;-75
2021/12/01 11:05:27;;;;;;;1.00;0.93;;;;;;;6.46;100.00;96362.75;5035416;28;20259;-78
2021/12/01 11:07:56;;;;;;;0.80;0.80;;;;;;;6.54;100.00;96358.38;5029984;28;20226;-76
2021/12/01 11:10:26;;;;;;;0.80;0.80;;;;;;;6.48;100.00;96344.13;5007839;28;20437;-76
2021/12/01 11:12:56;;;;;;;1.00;1.00;;;;;;;6.61;100.00;96354.84;5027792;28;20215;-78
2021/12/01 11:15:26;;;;;;;0.80;0.80;;;;;;;6.57;100.00;96348.31;5027411;28;20939;-76
2021/12/01 11:17:55;;;;;;;1.03;0.90;;;;;;;6.57;100.00;96343.03;5022621;28;20230;-75
2021/12/01 11:20:35;;;;;;;0.90;0.90;;;;;;;6.49;100.00;96330.78;5033055;28;20203;-78
2021/12/01 11:23:13;;;;;;;0.87;0.87;;;;;;;6.62;100.00;96322.25;5017020;28;20199;-76
2021/12/01 11:25:46;;;;;;;1.10;0.90;;;;;;;6.54;100.00;96311.81;5025676;28;20589;-76
2021/12/01 11:28:17;;;;;;;0.90;0.90;;;;;;;6.49;100.00;96309.75;5018226;28;20235;-79
2021/12/01 11:30:48;;;;;;;1.23;1.13;;;;;;;6.50;100.00;96294.75;5033904;28;20203;-79
2021/12/01 11:33:18;;;;;;;1.47;1.17;;;;;;;6.40;100.00;96302.09;5020866;28;20703;-78
2021/12/01 11:35:47;;;;;;;1.10;1.10;;;;;;;6.50;100.00;96290.31;5022445;28;20219;-77
2021/12/01 11:38:16;;;;;;;1.07;1.07;;;;;;;6.45;100.00;96291.84;5001288;28;20773;-79
2021/12/01 11:40:47;;;;;;;0.97;0.97;;;;;;;6.41;100.00;96278.22;5023996;28;20242;-79
2021/12/01 11:43:18;;;;;;;1.07;1.07;;;;;;;6.44;100.00;96277.88;5032580;28;20319;-79
2021/12/01 11:45:47;;;;;;;0.80;0.80;;;;;;;6.51;100.00;96265.63;5020061;28;20203;-77
2021/12/01 11:48:18;;;;;;;2.93;0.90;;;;;;;6.56;100.00;96266.91;5006536;28;20465;-78